Terminal Aerodrome Forecast
Issued by NWS

Home | Current Version | Previous Version | Graphics & Text | Print | Product List | Glossary On
Versions: 1 2 3 4 5 6 7 8 9 10 11 12 13 14 15
000
FTUS43 KBIS 250500
TAFMOT
TAF
KMOT 250529Z 2506/2606 25008KT P6SM SCT200
     FM251500 VRB06KT P6SM BKN100 BKN200
     FM252100 13008KT P6SM SCT100=

USA.gov is the U.S. government's official web portal to all federal, state and local government web resources and services.